Terminal Aerodrome Forecast
Issued by NWS Corpus Christi, TX

Home | Current Version | Previous Version | Text Only | Print | Product List | Glossary On
Versions: 1 2 3 4 5 6 7 8 9 10 11 12 13
000
FTUS44 KCRP 251700
TAFCRP
TAF
KCRP 251724Z 2518/2618 VRB04KT P6SM SKC
     FM251900 12009KT P6SM SKC
     FM260400 19004KT P6SM SKC
     FM260900 VRB03KT 4SM BR SKC
     FM261100 VRB02KT 1SM BR SCT002
      TEMPO 2611/2613 1/2SM FG BKN002
     FM261400 19006KT P6SM FEW025=

USA.gov is the U.S. government's official web portal to all federal, state and local government web resources and services.